sensor_id;sensor_type;location;lat;lon;timestamp;P1;durP1;ratioP1;P2;durP2;ratioP2
15633;SDS011;14654;48.898;8.308;2023-04-29T00:00:00;3.37;;;3.17;;
15633;SDS011;14654;48.898;8.308;2023-04-29T00:02:26;3.37;;;3.17;;
15633;SDS011;14654;48.898;8.308;2023-04-29T00:04:52;3.30;;;3.00;;
15633;SDS011;14654;48.898;8.308;2023-04-29T00:07:18;3.80;;;3.20;;
15633;SDS011;14654;48.898;8.308;2023-04-29T00:09:43;3.80;;;3.20;;
15633;SDS011;14654;48.898;8.308;2023-04-29T00:12:09;3.10;;;2.90;;
15633;SDS011;14654;48.898;8.308;2023-04-29T00:14:34;2.97;;;2.77;;
15633;SDS011;14654;48.898;8.308;2023-04-29T00:17:00;3.23;;;3.03;;
15633;SDS011;14654;48.898;8.308;2023-04-29T00:19:25;3.30;;;3.00;;
15633;SDS011;14654;48.898;8.308;2023-04-29T00:21:50;3.20;;;3.00;;
15633;SDS011;14654;48.898;8.308;2023-04-29T00:24:16;3.53;;;3.20;;
15633;SDS011;14654;48.898;8.308;2023-04-29T00:26:41;3.33;;;3.13;;
15633;SDS011;14654;48.898;8.308;2023-04-29T00:29:08;3.83;;;3.40;;
15633;SDS011;14654;48.898;8.308;2023-04-29T00:31:33;3.50;;;3.30;;
15633;SDS011;14654;48.898;8.308;2023-04-29T00:33:58;3.70;;;3.50;;
15633;SDS011;14654;48.898;8.308;2023-04-29T00:36:24;4.13;;;3.83;;
15633;SDS011;14654;48.898;8.308;2023-04-29T00:38:50;3.97;;;3.53;;
15633;SDS011;14654;48.898;8.308;2023-04-29T00:41:15;4.03;;;3.73;;
15633;SDS011;14654;48.898;8.308;2023-04-29T00:43:40;3.97;;;3.67;;
15633;SDS011;14654;48.898;8.308;2023-04-29T00:46:06;3.47;;;3.27;;
15633;SDS011;14654;48.898;8.308;2023-04-29T00:48:31;4.20;;;3.90;;
15633;SDS011;14654;48.898;8.308;2023-04-29T00:50:57;3.70;;;3.50;;
15633;SDS011;14654;48.898;8.308;2023-04-29T00:53:23;4.27;;;3.87;;
15633;SDS011;14654;48.898;8.308;2023-04-29T00:55:48;4.00;;;3.70;;
15633;SDS011;14654;48.898;8.308;2023-04-29T00:58:16;4.40;;;4.00;;
15633;SDS011;14654;48.898;8.308;2023-04-29T01:00:42;4.40;;;4.10;;
15633;SDS011;14654;48.898;8.308;2023-04-29T01:03:08;4.13;;;3.67;;
15633;SDS011;14654;48.898;8.308;2023-04-29T01:05:33;4.57;;;4.17;;
15633;SDS011;14654;48.898;8.308;2023-04-29T01:08:12;4.20;;;3.90;;
15633;SDS011;14654;48.898;8.308;2023-04-29T01:13:50;4.30;;;4.00;;
15633;SDS011;14654;48.898;8.308;2023-04-29T01:16:24;4.60;;;4.30;;
15633;SDS011;14654;48.898;8.308;2023-04-29T01:18:58;5.00;;;3.87;;
15633;SDS011;14654;48.898;8.308;2023-04-29T01:21:31;4.20;;;3.90;;
15633;SDS011;14654;48.898;8.308;2023-04-29T01:23:56;4.43;;;4.03;;
15633;SDS011;14654;48.898;8.308;2023-04-29T01:26:22;4.00;;;3.70;;
15633;SDS011;14654;48.898;8.308;2023-04-29T01:31:46;4.20;;;3.83;;
15633;SDS011;14654;48.898;8.308;2023-04-29T01:42:17;4.03;;;3.73;;
15633;SDS011;14654;48.898;8.308;2023-04-29T01:44:48;5.20;;;4.80;;
15633;SDS011;14654;48.898;8.308;2023-04-29T01:47:17;4.93;;;4.53;;
15633;SDS011;14654;48.898;8.308;2023-04-29T01:49:42;4.73;;;4.43;;
15633;SDS011;14654;48.898;8.308;2023-04-29T01:52:10;4.57;;;4.20;;
15633;SDS011;14654;48.898;8.308;2023-04-29T01:54:36;4.40;;;4.10;;
15633;SDS011;14654;48.898;8.308;2023-04-29T01:57:02;4.70;;;4.30;;
15633;SDS011;14654;48.898;8.308;2023-04-29T01:59:27;5.27;;;4.87;;
15633;SDS011;14654;48.898;8.308;2023-04-29T02:01:53;4.93;;;4.53;;
15633;SDS011;14654;48.898;8.308;2023-04-29T02:04:20;4.63;;;4.23;;
15633;SDS011;14654;48.898;8.308;2023-04-29T02:06:45;4.87;;;4.40;;
15633;SDS011;14654;48.898;8.308;2023-04-29T02:09:11;4.43;;;4.13;;
15633;SDS011;14654;48.898;8.308;2023-04-29T02:11:36;5.03;;;4.53;;
15633;SDS011;14654;48.898;8.308;2023-04-29T02:14:01;4.60;;;4.30;;
15633;SDS011;14654;48.898;8.308;2023-04-29T02:16:27;4.70;;;4.30;;
15633;SDS011;14654;48.898;8.308;2023-04-29T02:18:52;5.23;;;4.77;;
15633;SDS011;14654;48.898;8.308;2023-04-29T02:21:17;5.20;;;4.80;;
15633;SDS011;14654;48.898;8.308;2023-04-29T02:23:42;4.50;;;4.20;;
15633;SDS011;14654;48.898;8.308;2023-04-29T02:26:08;5.00;;;4.60;;
15633;SDS011;14654;48.898;8.308;2023-04-29T02:28:34;5.23;;;4.83;;
15633;SDS011;14654;48.898;8.308;2023-04-29T02:31:00;5.50;;;5.00;;
15633;SDS011;14654;48.898;8.308;2023-04-29T02:33:26;4.93;;;4.53;;
15633;SDS011;14654;48.898;8.308;2023-04-29T02:35:52;5.20;;;4.70;;
15633;SDS011;14654;48.898;8.308;2023-04-29T02:38:17;5.30;;;4.80;;
15633;SDS011;14654;48.898;8.308;2023-04-29T02:40:42;5.70;;;5.30;;
15633;SDS011;14654;48.898;8.308;2023-04-29T02:43:09;5.23;;;4.93;;
15633;SDS011;14654;48.898;8.308;2023-04-29T02:45:36;4.63;;;4.33;;
15633;SDS011;14654;48.898;8.308;2023-04-29T02:48:01;5.80;;;5.00;;
15633;SDS011;14654;48.898;8.308;2023-04-29T02:50:27;5.30;;;4.90;;
15633;SDS011;14654;48.898;8.308;2023-04-29T02:52:52;6.77;;;5.40;;
15633;SDS011;14654;48.898;8.308;2023-04-29T02:55:18;6.00;;;5.50;;
15633;SDS011;14654;48.898;8.308;2023-04-29T02:57:44;5.93;;;5.43;;
15633;SDS011;14654;48.898;8.308;2023-04-29T03:00:09;6.20;;;5.63;;
15633;SDS011;14654;48.898;8.308;2023-04-29T03:02:35;6.43;;;5.93;;
15633;SDS011;14654;48.898;8.308;2023-04-29T03:05:01;5.97;;;5.37;;
15633;SDS011;14654;48.898;8.308;2023-04-29T03:07:26;5.50;;;5.10;;
15633;SDS011;14654;48.898;8.308;2023-04-29T03:09:53;5.97;;;5.57;;
15633;SDS011;14654;48.898;8.308;2023-04-29T03:12:19;6.07;;;5.57;;
15633;SDS011;14654;48.898;8.308;2023-04-29T03:14:45;6.03;;;5.53;;
15633;SDS011;14654;48.898;8.308;2023-04-29T03:17:11;4.87;;;4.57;;
15633;SDS011;14654;48.898;8.308;2023-04-29T03:19:36;5.57;;;5.17;;
15633;SDS011;14654;48.898;8.308;2023-04-29T03:22:01;5.47;;;5.07;;
15633;SDS011;14654;48.898;8.308;2023-04-29T03:24:27;5.90;;;5.50;;
15633;SDS011;14654;48.898;8.308;2023-04-29T03:26:52;6.07;;;5.57;;
15633;SDS011;14654;48.898;8.308;2023-04-29T03:29:18;5.33;;;4.93;;
15633;SDS011;14654;48.898;8.308;2023-04-29T03:31:44;5.73;;;5.33;;
15633;SDS011;14654;48.898;8.308;2023-04-29T03:34:09;5.20;;;4.80;;
15633;SDS011;14654;48.898;8.308;2023-04-29T03:36:35;5.03;;;4.63;;
15633;SDS011;14654;48.898;8.308;2023-04-29T03:39:00;5.07;;;4.67;;
15633;SDS011;14654;48.898;8.308;2023-04-29T03:41:26;5.00;;;4.60;;
15633;SDS011;14654;48.898;8.308;2023-04-29T03:43:51;5.30;;;4.90;;
15633;SDS011;14654;48.898;8.308;2023-04-29T03:46:16;5.33;;;4.67;;
15633;SDS011;14654;48.898;8.308;2023-04-29T03:48:42;4.83;;;4.53;;
15633;SDS011;14654;48.898;8.308;2023-04-29T03:51:07;5.10;;;4.70;;
15633;SDS011;14654;48.898;8.308;2023-04-29T03:53:33;4.87;;;4.47;;
15633;SDS011;14654;48.898;8.308;2023-04-29T03:56:00;5.40;;;4.90;;
15633;SDS011;14654;48.898;8.308;2023-04-29T03:58:25;4.93;;;4.53;;
15633;SDS011;14654;48.898;8.308;2023-04-29T04:00:51;5.50;;;4.93;;
15633;SDS011;14654;48.898;8.308;2023-04-29T04:03:16;4.87;;;4.50;;
15633;SDS011;14654;48.898;8.308;2023-04-29T04:05:41;5.10;;;4.80;;
15633;SDS011;14654;48.898;8.308;2023-04-29T04:08:07;5.10;;;4.60;;
15633;SDS011;14654;48.898;8.308;2023-04-29T04:10:32;5.20;;;4.80;;
15633;SDS011;14654;48.898;8.308;2023-04-29T04:12:57;5.33;;;4.93;;
15633;SDS011;14654;48.898;8.308;2023-04-29T04:15:23;4.60;;;4.27;;
15633;SDS011;14654;48.898;8.308;2023-04-29T04:17:48;4.67;;;4.37;;
15633;SDS011;14654;48.898;8.308;2023-04-29T04:20:13;4.57;;;4.17;;
15633;SDS011;14654;48.898;8.308;2023-04-29T04:22:39;4.57;;;4.27;;
15633;SDS011;14654;48.898;8.308;2023-04-29T04:25:05;5.10;;;4.70;;
15633;SDS011;14654;48.898;8.308;2023-04-29T04:27:31;4.80;;;4.40;;
15633;SDS011;14654;48.898;8.308;2023-04-29T04:29:56;5.03;;;4.57;;
15633;SDS011;14654;48.898;8.308;2023-04-29T04:32:21;5.27;;;4.87;;
15633;SDS011;14654;48.898;8.308;2023-04-29T04:34:47;4.43;;;4.13;;
15633;SDS011;14654;48.898;8.308;2023-04-29T04:37:13;4.07;;;3.73;;
15633;SDS011;14654;48.898;8.308;2023-04-29T04:39:39;4.53;;;4.13;;
15633;SDS011;14654;48.898;8.308;2023-04-29T04:42:04;4.83;;;4.33;;
15633;SDS011;14654;48.898;8.308;2023-04-29T04:44:29;4.53;;;4.23;;
15633;SDS011;14654;48.898;8.308;2023-04-29T04:46:55;4.40;;;4.10;;
15633;SDS011;14654;48.898;8.308;2023-04-29T04:49:22;4.30;;;3.90;;
15633;SDS011;14654;48.898;8.308;2023-04-29T04:51:49;5.00;;;4.60;;
15633;SDS011;14654;48.898;8.308;2023-04-29T04:54:14;4.20;;;3.90;;
15633;SDS011;14654;48.898;8.308;2023-04-29T04:56:39;4.70;;;4.30;;
15633;SDS011;14654;48.898;8.308;2023-04-29T04:59:05;4.50;;;4.10;;
15633;SDS011;14654;48.898;8.308;2023-04-29T05:01:30;4.00;;;3.70;;
15633;SDS011;14654;48.898;8.308;2023-04-29T05:03:55;3.90;;;3.53;;
15633;SDS011;14654;48.898;8.308;2023-04-29T05:06:22;4.00;;;3.60;;
15633;SDS011;14654;48.898;8.308;2023-04-29T05:08:47;3.87;;;3.60;;
15633;SDS011;14654;48.898;8.308;2023-04-29T05:11:19;3.80;;;3.50;;
15633;SDS011;14654;48.898;8.308;2023-04-29T05:13:46;4.07;;;3.77;;
15633;SDS011;14654;48.898;8.308;2023-04-29T05:16:11;3.27;;;3.00;;
15633;SDS011;14654;48.898;8.308;2023-04-29T05:18:37;4.67;;;3.57;;
15633;SDS011;14654;48.898;8.308;2023-04-29T05:21:02;5.60;;;3.03;;
15633;SDS011;14654;48.898;8.308;2023-04-29T05:23:28;3.50;;;3.20;;
15633;SDS011;14654;48.898;8.308;2023-04-29T05:25:53;3.20;;;2.90;;
15633;SDS011;14654;48.898;8.308;2023-04-29T05:28:19;3.27;;;3.03;;
15633;SDS011;14654;48.898;8.308;2023-04-29T05:30:44;2.80;;;2.60;;
15633;SDS011;14654;48.898;8.308;2023-04-29T05:33:10;2.57;;;2.37;;
15633;SDS011;14654;48.898;8.308;2023-04-29T05:35:35;2.20;;;2.00;;
15633;SDS011;14654;48.898;8.308;2023-04-29T05:38:01;3.00;;;2.40;;
15633;SDS011;14654;48.898;8.308;2023-04-29T05:40:27;3.57;;;2.40;;
15633;SDS011;14654;48.898;8.308;2023-04-29T05:42:53;2.13;;;1.93;;
15633;SDS011;14654;48.898;8.308;2023-04-29T05:45:18;2.43;;;2.23;;
15633;SDS011;14654;48.898;8.308;2023-04-29T05:47:43;2.13;;;2.00;;
15633;SDS011;14654;48.898;8.308;2023-04-29T05:50:09;2.40;;;2.20;;
15633;SDS011;14654;48.898;8.308;2023-04-29T05:52:35;2.27;;;2.07;;
15633;SDS011;14654;48.898;8.308;2023-04-29T05:55:01;1.90;;;1.80;;
15633;SDS011;14654;48.898;8.308;2023-04-29T05:57:26;1.90;;;1.80;;
15633;SDS011;14654;48.898;8.308;2023-04-29T05:59:51;1.57;;;1.47;;
15633;SDS011;14654;48.898;8.308;2023-04-29T06:02:19;2.30;;;1.53;;
15633;SDS011;14654;48.898;8.308;2023-04-29T06:04:44;2.00;;;1.57;;
15633;SDS011;14654;48.898;8.308;2023-04-29T06:07:12;2.03;;;1.80;;
15633;SDS011;14654;48.898;8.308;2023-04-29T06:09:38;1.73;;;1.63;;
15633;SDS011;14654;48.898;8.308;2023-04-29T06:12:04;2.10;;;1.83;;
15633;SDS011;14654;48.898;8.308;2023-04-29T06:14:29;1.43;;;1.33;;
15633;SDS011;14654;48.898;8.308;2023-04-29T06:16:55;2.40;;;1.70;;
15633;SDS011;14654;48.898;8.308;2023-04-29T06:19:21;1.30;;;1.20;;
15633;SDS011;14654;48.898;8.308;2023-04-29T06:21:46;1.53;;;1.43;;
15633;SDS011;14654;48.898;8.308;2023-04-29T06:24:11;1.50;;;1.40;;
15633;SDS011;14654;48.898;8.308;2023-04-29T06:26:37;1.40;;;1.30;;
15633;SDS011;14654;48.898;8.308;2023-04-29T06:29:03;1.50;;;1.40;;
15633;SDS011;14654;48.898;8.308;2023-04-29T06:31:28;1.53;;;1.40;;
15633;SDS011;14654;48.898;8.308;2023-04-29T06:33:54;1.90;;;1.53;;
15633;SDS011;14654;48.898;8.308;2023-04-29T06:36:19;1.67;;;1.37;;
15633;SDS011;14654;48.898;8.308;2023-04-29T06:38:44;1.50;;;1.40;;
15633;SDS011;14654;48.898;8.308;2023-04-29T06:41:10;2.33;;;1.47;;
15633;SDS011;14654;48.898;8.308;2023-04-29T06:43:35;2.10;;;1.37;;
15633;SDS011;14654;48.898;8.308;2023-04-29T06:46:01;1.63;;;1.50;;
15633;SDS011;14654;48.898;8.308;2023-04-29T06:48:26;1.47;;;1.37;;
15633;SDS011;14654;48.898;8.308;2023-04-29T06:50:53;1.87;;;1.70;;
15633;SDS011;14654;48.898;8.308;2023-04-29T06:53:19;1.83;;;1.73;;
15633;SDS011;14654;48.898;8.308;2023-04-29T06:55:45;1.73;;;1.63;;
15633;SDS011;14654;48.898;8.308;2023-04-29T06:58:11;1.53;;;1.30;;
15633;SDS011;14654;48.898;8.308;2023-04-29T07:00:37;2.97;;;1.70;;
15633;SDS011;14654;48.898;8.308;2023-04-29T07:03:03;1.70;;;1.60;;
15633;SDS011;14654;48.898;8.308;2023-04-29T07:05:28;1.60;;;1.50;;
15633;SDS011;14654;48.898;8.308;2023-04-29T07:07:53;1.63;;;1.53;;
15633;SDS011;14654;48.898;8.308;2023-04-29T07:10:19;2.13;;;1.60;;
15633;SDS011;14654;48.898;8.308;2023-04-29T07:12:44;1.60;;;1.50;;
15633;SDS011;14654;48.898;8.308;2023-04-29T07:15:09;2.33;;;1.57;;
15633;SDS011;14654;48.898;8.308;2023-04-29T07:17:35;1.57;;;1.47;;
15633;SDS011;14654;48.898;8.308;2023-04-29T07:20:00;1.57;;;1.47;;
15633;SDS011;14654;48.898;8.308;2023-04-29T07:22:26;1.60;;;1.50;;
15633;SDS011;14654;48.898;8.308;2023-04-29T07:24:54;1.93;;;1.53;;
15633;SDS011;14654;48.898;8.308;2023-04-29T07:27:21;2.03;;;1.83;;
15633;SDS011;14654;48.898;8.308;2023-04-29T07:29:47;2.03;;;1.60;;
15633;SDS011;14654;48.898;8.308;2023-04-29T07:32:12;1.70;;;1.60;;
15633;SDS011;14654;48.898;8.308;2023-04-29T07:34:37;1.80;;;1.60;;
15633;SDS011;14654;48.898;8.308;2023-04-29T07:37:03;2.00;;;1.60;;
15633;SDS011;14654;48.898;8.308;2023-04-29T07:39:28;2.00;;;1.90;;
15633;SDS011;14654;48.898;8.308;2023-04-29T07:41:54;1.63;;;1.53;;
15633;SDS011;14654;48.898;8.308;2023-04-29T07:44:19;2.03;;;1.83;;
15633;SDS011;14654;48.898;8.308;2023-04-29T07:46:46;2.00;;;1.80;;
15633;SDS011;14654;48.898;8.308;2023-04-29T07:49:11;2.27;;;1.60;;
15633;SDS011;14654;48.898;8.308;2023-04-29T07:51:39;1.57;;;1.47;;
15633;SDS011;14654;48.898;8.308;2023-04-29T07:54:06;1.60;;;1.50;;
15633;SDS011;14654;48.898;8.308;2023-04-29T07:56:31;2.00;;;1.90;;
15633;SDS011;14654;48.898;8.308;2023-04-29T07:58:56;1.80;;;1.70;;
15633;SDS011;14654;48.898;8.308;2023-04-29T08:01:24;1.97;;;1.87;;
15633;SDS011;14654;48.898;8.308;2023-04-29T08:03:49;2.47;;;1.83;;
15633;SDS011;14654;48.898;8.308;2023-04-29T08:06:14;2.27;;;1.80;;
15633;SDS011;14654;48.898;8.308;2023-04-29T08:08:40;1.63;;;1.53;;
15633;SDS011;14654;48.898;8.308;2023-04-29T08:11:06;1.90;;;1.80;;
15633;SDS011;14654;48.898;8.308;2023-04-29T08:13:39;2.10;;;1.90;;
15633;SDS011;14654;48.898;8.308;2023-04-29T08:16:04;1.90;;;1.63;;
15633;SDS011;14654;48.898;8.308;2023-04-29T08:18:30;1.70;;;1.60;;
15633;SDS011;14654;48.898;8.308;2023-04-29T08:20:55;2.20;;;2.00;;
15633;SDS011;14654;48.898;8.308;2023-04-29T08:23:20;1.60;;;1.50;;
15633;SDS011;14654;48.898;8.308;2023-04-29T08:25:46;1.90;;;1.67;;
15633;SDS011;14654;48.898;8.308;2023-04-29T08:28:11;2.20;;;1.80;;
15633;SDS011;14654;48.898;8.308;2023-04-29T08:30:37;2.13;;;1.70;;
15633;SDS011;14654;48.898;8.308;2023-04-29T08:33:04;2.00;;;1.90;;
15633;SDS011;14654;48.898;8.308;2023-04-29T08:35:30;1.90;;;1.80;;
15633;SDS011;14654;48.898;8.308;2023-04-29T08:37:56;1.80;;;1.70;;
15633;SDS011;14654;48.898;8.308;2023-04-29T08:40:21;1.50;;;1.40;;
15633;SDS011;14654;48.898;8.308;2023-04-29T08:42:46;1.90;;;1.80;;
15633;SDS011;14654;48.898;8.308;2023-04-29T08:45:13;1.73;;;1.63;;
15633;SDS011;14654;48.898;8.308;2023-04-29T08:47:41;1.87;;;1.70;;
15633;SDS011;14654;48.898;8.308;2023-04-29T08:50:07;1.97;;;1.77;;
15633;SDS011;14654;48.898;8.308;2023-04-29T08:52:33;2.13;;;1.93;;
15633;SDS011;14654;48.898;8.308;2023-04-29T08:55:00;1.70;;;1.60;;
15633;SDS011;14654;48.898;8.308;2023-04-29T08:57:26;1.50;;;1.40;;
15633;SDS011;14654;48.898;8.308;2023-04-29T08:59:53;1.60;;;1.50;;
15633;SDS011;14654;48.898;8.308;2023-04-29T09:02:19;2.07;;;1.90;;
15633;SDS011;14654;48.898;8.308;2023-04-29T09:04:51;1.97;;;1.87;;
15633;SDS011;14654;48.898;8.308;2023-04-29T09:07:21;2.00;;;1.90;;
15633;SDS011;14654;48.898;8.308;2023-04-29T09:09:48;1.70;;;1.60;;
15633;SDS011;14654;48.898;8.308;2023-04-29T09:12:15;1.70;;;1.60;;
15633;SDS011;14654;48.898;8.308;2023-04-29T09:14:41;2.33;;;2.17;;
15633;SDS011;14654;48.898;8.308;2023-04-29T09:17:06;2.20;;;2.00;;
15633;SDS011;14654;48.898;8.308;2023-04-29T09:19:35;2.30;;;2.10;;
15633;SDS011;14654;48.898;8.308;2023-04-29T09:22:01;2.13;;;1.93;;
15633;SDS011;14654;48.898;8.308;2023-04-29T09:24:28;2.67;;;2.30;;
15633;SDS011;14654;48.898;8.308;2023-04-29T09:26:55;2.03;;;1.90;;
15633;SDS011;14654;48.898;8.308;2023-04-29T09:29:22;2.07;;;1.97;;
15633;SDS011;14654;48.898;8.308;2023-04-29T09:31:49;2.50;;;2.10;;
15633;SDS011;14654;48.898;8.308;2023-04-29T09:34:15;2.50;;;2.30;;
15633;SDS011;14654;48.898;8.308;2023-04-29T09:36:42;2.20;;;2.00;;
15633;SDS011;14654;48.898;8.308;2023-04-29T09:39:16;2.00;;;1.77;;
15633;SDS011;14654;48.898;8.308;2023-04-29T09:44:14;2.50;;;2.30;;
15633;SDS011;14654;48.898;8.308;2023-04-29T09:46:40;2.13;;;1.90;;
15633;SDS011;14654;48.898;8.308;2023-04-29T09:49:22;2.27;;;2.07;;
15633;SDS011;14654;48.898;8.308;2023-04-29T09:51:52;2.60;;;2.40;;
15633;SDS011;14654;48.898;8.308;2023-04-29T09:54:25;2.23;;;2.03;;
15633;SDS011;14654;48.898;8.308;2023-04-29T09:56:55;4.63;;;2.57;;
15633;SDS011;14654;48.898;8.308;2023-04-29T09:59:22;3.43;;;2.23;;
15633;SDS011;14654;48.898;8.308;2023-04-29T10:01:50;2.40;;;2.20;;
15633;SDS011;14654;48.898;8.308;2023-04-29T10:04:17;2.30;;;2.10;;
15633;SDS011;14654;48.898;8.308;2023-04-29T10:06:44;2.70;;;2.50;;
15633;SDS011;14654;48.898;8.308;2023-04-29T10:09:12;2.63;;;2.30;;
15633;SDS011;14654;48.898;8.308;2023-04-29T10:11:45;2.57;;;2.37;;
15633;SDS011;14654;48.898;8.308;2023-04-29T10:14:13;3.37;;;2.43;;
15633;SDS011;14654;48.898;8.308;2023-04-29T10:16:47;2.63;;;2.43;;
15633;SDS011;14654;48.898;8.308;2023-04-29T10:19:17;2.57;;;2.37;;
15633;SDS011;14654;48.898;8.308;2023-04-29T10:21:47;2.50;;;2.30;;
15633;SDS011;14654;48.898;8.308;2023-04-29T10:24:13;2.73;;;2.53;;
15633;SDS011;14654;48.898;8.308;2023-04-29T10:26:42;3.13;;;2.23;;
15633;SDS011;14654;48.898;8.308;2023-04-29T10:29:08;2.10;;;1.90;;
15633;SDS011;14654;48.898;8.308;2023-04-29T10:31:35;2.50;;;2.30;;
15633;SDS011;14654;48.898;8.308;2023-04-29T10:34:02;2.10;;;1.90;;
15633;SDS011;14654;48.898;8.308;2023-04-29T10:36:28;2.87;;;2.67;;
15633;SDS011;14654;48.898;8.308;2023-04-29T10:38:56;2.57;;;2.37;;
15633;SDS011;14654;48.898;8.308;2023-04-29T10:41:36;2.40;;;2.20;;
15633;SDS011;14654;48.898;8.308;2023-04-29T10:44:06;2.30;;;1.90;;
15633;SDS011;14654;48.898;8.308;2023-04-29T10:46:32;4.23;;;2.73;;
15633;SDS011;14654;48.898;8.308;2023-04-29T10:49:03;2.63;;;2.47;;
15633;SDS011;14654;48.898;8.308;2023-04-29T10:51:40;2.50;;;2.30;;
15633;SDS011;14654;48.898;8.308;2023-04-29T10:54:18;2.30;;;2.10;;
15633;SDS011;14654;48.898;8.308;2023-04-29T10:56:50;2.30;;;2.10;;
15633;SDS011;14654;48.898;8.308;2023-04-29T10:59:20;2.50;;;2.30;;
15633;SDS011;14654;48.898;8.308;2023-04-29T11:01:47;2.67;;;2.47;;
15633;SDS011;14654;48.898;8.308;2023-04-29T11:04:14;2.73;;;2.53;;
15633;SDS011;14654;48.898;8.308;2023-04-29T11:06:42;2.63;;;2.43;;
15633;SDS011;14654;48.898;8.308;2023-04-29T11:19:35;2.47;;;2.27;;
15633;SDS011;14654;48.898;8.308;2023-04-29T11:22:10;2.33;;;2.13;;
15633;SDS011;14654;48.898;8.308;2023-04-29T11:24:48;3.43;;;3.13;;
15633;SDS011;14654;48.898;8.308;2023-04-29T11:27:14;6.50;;;4.80;;
15633;SDS011;14654;48.898;8.308;2023-04-29T11:29:40;7.47;;;5.97;;
15633;SDS011;14654;48.898;8.308;2023-04-29T11:32:06;6.33;;;5.73;;
15633;SDS011;14654;48.898;8.308;2023-04-29T11:34:31;6.10;;;5.60;;
15633;SDS011;14654;48.898;8.308;2023-04-29T11:36:57;5.80;;;5.30;;
15633;SDS011;14654;48.898;8.308;2023-04-29T11:39:22;6.40;;;5.80;;
15633;SDS011;14654;48.898;8.308;2023-04-29T11:41:48;6.40;;;5.90;;
15633;SDS011;14654;48.898;8.308;2023-04-29T11:44:13;6.03;;;5.43;;
15633;SDS011;14654;48.898;8.308;2023-04-29T11:46:39;6.20;;;5.70;;
15633;SDS011;14654;48.898;8.308;2023-04-29T11:49:04;6.27;;;5.13;;
15633;SDS011;14654;48.898;8.308;2023-04-29T11:51:29;5.20;;;4.77;;
15633;SDS011;14654;48.898;8.308;2023-04-29T11:53:56;5.83;;;5.33;;
15633;SDS011;14654;48.898;8.308;2023-04-29T11:56:22;5.67;;;5.17;;
15633;SDS011;14654;48.898;8.308;2023-04-29T11:58:49;7.47;;;5.87;;
15633;SDS011;14654;48.898;8.308;2023-04-29T12:01:18;7.23;;;5.60;;
15633;SDS011;14654;48.898;8.308;2023-04-29T12:03:44;5.90;;;5.40;;
15633;SDS011;14654;48.898;8.308;2023-04-29T12:06:10;6.40;;;5.90;;
15633;SDS011;14654;48.898;8.308;2023-04-29T12:08:37;6.30;;;5.77;;
15633;SDS011;14654;48.898;8.308;2023-04-29T12:11:03;6.00;;;5.50;;
15633;SDS011;14654;48.898;8.308;2023-04-29T12:13:31;6.43;;;5.83;;
15633;SDS011;14654;48.898;8.308;2023-04-29T12:16:00;7.27;;;6.57;;
15633;SDS011;14654;48.898;8.308;2023-04-29T12:18:25;7.67;;;6.97;;
15633;SDS011;14654;48.898;8.308;2023-04-29T12:20:51;7.27;;;6.67;;
15633;SDS011;14654;48.898;8.308;2023-04-29T12:23:18;7.60;;;6.83;;
15633;SDS011;14654;48.898;8.308;2023-04-29T12:25:56;7.80;;;7.10;;
15633;SDS011;14654;48.898;8.308;2023-04-29T12:28:23;6.23;;;5.73;;
15633;SDS011;14654;48.898;8.308;2023-04-29T12:30:50;6.63;;;6.03;;
15633;SDS011;14654;48.898;8.308;2023-04-29T12:33:18;7.20;;;6.47;;
15633;SDS011;14654;48.898;8.308;2023-04-29T12:35:48;6.60;;;6.00;;
15633;SDS011;14654;48.898;8.308;2023-04-29T12:38:15;7.13;;;6.53;;
15633;SDS011;14654;48.898;8.308;2023-04-29T12:40:44;7.07;;;6.47;;
15633;SDS011;14654;48.898;8.308;2023-04-29T12:43:10;6.83;;;6.20;;
15633;SDS011;14654;48.898;8.308;2023-04-29T12:45:37;7.27;;;6.53;;
15633;SDS011;14654;48.898;8.308;2023-04-29T12:48:03;6.80;;;6.20;;
15633;SDS011;14654;48.898;8.308;2023-04-29T12:50:32;6.77;;;6.17;;
15633;SDS011;14654;48.898;8.308;2023-04-29T12:52:59;6.23;;;5.73;;
15633;SDS011;14654;48.898;8.308;2023-04-29T12:55:25;6.60;;;5.87;;
15633;SDS011;14654;48.898;8.308;2023-04-29T12:57:50;7.00;;;6.40;;
15633;SDS011;14654;48.898;8.308;2023-04-29T13:00:16;6.97;;;6.37;;
15633;SDS011;14654;48.898;8.308;2023-04-29T13:02:44;7.57;;;6.87;;
15633;SDS011;14654;48.898;8.308;2023-04-29T13:05:09;7.10;;;6.40;;
15633;SDS011;14654;48.898;8.308;2023-04-29T13:07:36;6.60;;;6.00;;
15633;SDS011;14654;48.898;8.308;2023-04-29T13:10:02;6.87;;;6.27;;
15633;SDS011;14654;48.898;8.308;2023-04-29T13:12:30;6.80;;;6.23;;
15633;SDS011;14654;48.898;8.308;2023-04-29T13:14:55;6.50;;;5.90;;
15633;SDS011;14654;48.898;8.308;2023-04-29T13:17:21;6.80;;;6.10;;
15633;SDS011;14654;48.898;8.308;2023-04-29T13:19:46;7.13;;;6.37;;
15633;SDS011;14654;48.898;8.308;2023-04-29T13:22:12;6.93;;;6.33;;
15633;SDS011;14654;48.898;8.308;2023-04-29T13:24:37;6.70;;;6.13;;
15633;SDS011;14654;48.898;8.308;2023-04-29T13:27:02;7.20;;;6.60;;
15633;SDS011;14654;48.898;8.308;2023-04-29T13:29:28;6.67;;;6.07;;
15633;SDS011;14654;48.898;8.308;2023-04-29T13:31:53;5.80;;;5.30;;
15633;SDS011;14654;48.898;8.308;2023-04-29T13:34:18;5.90;;;5.40;;
15633;SDS011;14654;48.898;8.308;2023-04-29T13:36:44;6.07;;;5.30;;
15633;SDS011;14654;48.898;8.308;2023-04-29T13:39:10;5.80;;;5.30;;
15633;SDS011;14654;48.898;8.308;2023-04-29T13:41:35;5.70;;;5.23;;
15633;SDS011;14654;48.898;8.308;2023-04-29T13:44:00;7.30;;;5.47;;
15633;SDS011;14654;48.898;8.308;2023-04-29T13:46:26;5.77;;;5.30;;
15633;SDS011;14654;48.898;8.308;2023-04-29T13:48:52;5.73;;;5.10;;
15633;SDS011;14654;48.898;8.308;2023-04-29T13:51:17;6.13;;;5.57;;
15633;SDS011;14654;48.898;8.308;2023-04-29T13:53:43;6.07;;;5.53;;
15633;SDS011;14654;48.898;8.308;2023-04-29T13:56:08;5.47;;;4.97;;
15633;SDS011;14654;48.898;8.308;2023-04-29T13:58:34;6.00;;;5.50;;
15633;SDS011;14654;48.898;8.308;2023-04-29T14:01:00;5.83;;;5.33;;
15633;SDS011;14654;48.898;8.308;2023-04-29T14:03:25;5.70;;;5.20;;
15633;SDS011;14654;48.898;8.308;2023-04-29T14:05:50;6.23;;;5.60;;
15633;SDS011;14654;48.898;8.308;2023-04-29T14:08:16;5.30;;;4.80;;
15633;SDS011;14654;48.898;8.308;2023-04-29T14:10:41;5.23;;;4.80;;
15633;SDS011;14654;48.898;8.308;2023-04-29T14:13:07;5.73;;;5.23;;
15633;SDS011;14654;48.898;8.308;2023-04-29T14:15:32;6.27;;;5.73;;
15633;SDS011;14654;48.898;8.308;2023-04-29T14:17:58;7.10;;;6.40;;
15633;SDS011;14654;48.898;8.308;2023-04-29T14:20:23;6.20;;;5.60;;
15633;SDS011;14654;48.898;8.308;2023-04-29T14:22:48;6.13;;;5.63;;
15633;SDS011;14654;48.898;8.308;2023-04-29T14:25:14;5.90;;;5.50;;
15633;SDS011;14654;48.898;8.308;2023-04-29T14:27:39;6.30;;;5.80;;
15633;SDS011;14654;48.898;8.308;2023-04-29T14:30:05;6.10;;;5.60;;
15633;SDS011;14654;48.898;8.308;2023-04-29T14:32:30;6.03;;;5.57;;
15633;SDS011;14654;48.898;8.308;2023-04-29T14:34:56;6.47;;;5.97;;
15633;SDS011;14654;48.898;8.308;2023-04-29T14:37:22;5.90;;;5.40;;
15633;SDS011;14654;48.898;8.308;2023-04-29T14:39:47;6.10;;;5.43;;
15633;SDS011;14654;48.898;8.308;2023-04-29T14:42:13;5.47;;;4.97;;
15633;SDS011;14654;48.898;8.308;2023-04-29T14:44:39;5.53;;;5.10;;
15633;SDS011;14654;48.898;8.308;2023-04-29T14:47:04;7.57;;;6.00;;
15633;SDS011;14654;48.898;8.308;2023-04-29T14:49:30;6.37;;;5.77;;
15633;SDS011;14654;48.898;8.308;2023-04-29T14:51:55;6.13;;;5.53;;
15633;SDS011;14654;48.898;8.308;2023-04-29T14:54:20;6.33;;;5.83;;
15633;SDS011;14654;48.898;8.308;2023-04-29T14:56:46;6.10;;;5.60;;
15633;SDS011;14654;48.898;8.308;2023-04-29T14:59:11;6.00;;;5.40;;
15633;SDS011;14654;48.898;8.308;2023-04-29T15:01:37;6.30;;;5.80;;
15633;SDS011;14654;48.898;8.308;2023-04-29T15:04:03;6.00;;;5.50;;
15633;SDS011;14654;48.898;8.308;2023-04-29T15:06:30;6.77;;;6.07;;
15633;SDS011;14654;48.898;8.308;2023-04-29T15:08:56;6.87;;;6.13;;